Time,TemperatureF,DewpointF,PressureIn,WindDirection,WindDirectionDegrees,WindSpeedMPH,WindSpeedGustMPH,Humidity,HourlyPrecipIn,Conditions,Clouds,dailyrainin,SoftwareType,DateUTC
2013-04-01 00:00:00,55.0,53.9,29.83,ESE,105,0.0,0.0,96,0.00,,OVC130,0.00,VWS V14.01,2013-04-01 04:00:00,
2013-04-01 00:10:00,54.9,53.8,29.84,ESE,105,0.0,0.0,96,0.00,,OVC130,0.00,VWS V14.01,2013-04-01 04:10:00,
2013-04-01 00:15:00,54.7,53.6,29.84,ESE,105,0.0,1.0,96,0.00,,OVC130,0.00,VWS V14.01,2013-04-01 04:15:00,
2013-04-01 00:20:00,54.6,53.5,29.84,ESE,105,0.0,0.0,96,0.00,,OVC130,0.00,VWS V14.01,2013-04-01 04:20:00,
2013-04-01 00:25:00,54.6,53.5,29.83,ESE,105,0.0,0.0,96,0.00,,OVC130,0.00,VWS V14.01,2013-04-01 04:25:00,
2013-04-01 00:30:00,54.5,53.4,29.83,ESE,105,0.0,1.0,96,0.00,,OVC130,0.00,VWS V14.01,2013-04-01 04:30:00,
2013-04-01 00:35:00,54.4,53.3,29.84,ESE,105,0.0,1.0,96,0.00,,OVC130,0.00,VWS V14.01,2013-04-01 04:35:00,
2013-04-01 00:40:00,54.4,53.3,29.84,ESE,105,0.0,0.0,96,0.00,,OVC130,0.00,VWS V14.01,2013-04-01 04:40:00,
2013-04-01 00:45:00,54.3,53.2,29.84,ESE,105,0.0,1.0,96,0.00,,OVC130,0.00,VWS V14.01,2013-04-01 04:45:00,
2013-04-01 00:50:00,54.1,53.0,29.84,ESE,105,0.0,0.0,96,0.00,,OVC130,0.00,VWS V14.01,2013-04-01 04:50:00,
2013-04-01 00:55:00,53.9,52.8,29.84,ESE,105,0.0,0.0,96,0.00,,OVC130,0.00,VWS V14.01,2013-04-01 04:55:00,
2013-04-01 01:00:00,53.8,52.7,29.84,ESE,105,0.0,0.0,96,0.00,,OVC200,0.00,VWS V14.01,2013-04-01 05:00:00,
2013-04-01 01:10:00,53.7,52.6,29.84,ESE,105,0.0,0.0,96,0.00,,OVC200,0.00,VWS V14.01,2013-04-01 05:10:00,
2013-04-01 01:15:00,53.7,52.6,29.84,ESE,105,0.0,0.0,96,0.00,,OVC200,0.00,VWS V14.01,2013-04-01 05:15:00,
2013-04-01 01:20:00,53.6,52.5,29.84,ESE,105,0.0,0.0,96,0.00,,OVC200,0.00,VWS V14.01,2013-04-01 05:20:00,
2013-04-01 01:30:00,53.6,52.5,29.84,ESE,105,0.0,0.0,96,0.00,,OVC200,0.00,VWS V14.01,2013-04-01 05:30:00,
2013-04-01 01:35:00,53.5,52.4,29.84,ESE,105,0.0,0.0,96,0.00,,OVC200,0.00,VWS V14.01,2013-04-01 05:35:00,
2013-04-01 01:40:00,53.4,52.3,29.84,ESE,105,0.0,0.0,96,0.00,,OVC200,0.00,VWS V14.01,2013-04-01 05:40:00,
2013-04-01 01:50:00,53.4,52.3,29.83,ESE,105,0.0,0.0,96,0.00,,OVC200,0.00,VWS V14.01,2013-04-01 05:50:00,
2013-04-01 01:55:00,53.3,52.5,29.83,ESE,105,0.0,0.0,97,0.00,,OVC200,0.00,VWS V14.01,2013-04-01 05:55:00,
2013-04-01 02:00:00,53.3,52.5,29.83,ESE,105,0.0,0.0,97,0.00,,OVC100,0.00,VWS V14.01,2013-04-01 06:00:00,
2013-04-01 02:05:00,53.3,52.5,29.83,ESE,105,0.0,0.0,97,0.00,,OVC100,0.00,VWS V14.01,2013-04-01 06:05:00,
2013-04-01 02:10:00,53.3,52.5,29.83,ESE,105,0.0,0.0,97,0.00,,OVC100,0.00,VWS V14.01,2013-04-01 06:10:00,
2013-04-01 02:15:00,53.3,52.5,29.84,ESE,105,0.0,0.0,97,0.00,,OVC100,0.00,VWS V14.01,2013-04-01 06:15:00,
2013-04-01 02:20:00,53.4,52.6,29.84,ESE,105,0.0,0.0,97,0.00,,OVC100,0.00,VWS V14.01,2013-04-01 06:20:00,
2013-04-01 02:25:00,53.9,53.1,29.84,ESE,105,0.0,0.0,97,0.00,,OVC100,0.00,VWS V14.01,2013-04-01 06:25:00,
2013-04-01 02:30:00,53.9,53.1,29.84,ESE,105,0.0,0.0,97,0.00,,OVC100,0.00,VWS V14.01,2013-04-01 06:30:00,
2013-04-01 02:35:00,54.1,53.3,29.84,SSW,200,0.0,0.0,97,0.00,,OVC100,0.00,VWS V14.01,2013-04-01 06:35:00,
2013-04-01 02:40:00,54.3,53.5,29.84,SSW,199,0.0,0.0,97,0.00,,OVC100,0.00,VWS V14.01,2013-04-01 06:40:00,
2013-04-01 02:45:00,54.4,53.6,29.83,SSW,199,0.0,0.0,97,0.00,,OVC100,0.00,VWS V14.01,2013-04-01 06:45:00,
2013-04-01 02:55:00,54.5,53.7,29.83,SSW,199,0.0,0.0,97,0.00,,OVC100,0.00,VWS V14.01,2013-04-01 06:55:00,
2013-04-01 03:00:00,54.5,53.7,29.83,SSW,200,0.0,0.0,97,0.00,,-RA,0.00,VWS V14.01,2013-04-01 07:00:00,
2013-04-01 03:05:00,54.5,53.7,29.83,SSW,199,0.0,0.0,97,0.00,,-RA,0.00,VWS V14.01,2013-04-01 07:05:00,
2013-04-01 03:10:00,54.5,53.7,29.83,SSW,199,0.0,0.0,97,0.00,,-RA,0.00,VWS V14.01,2013-04-01 07:10:00,
2013-04-01 03:15:00,54.5,53.7,29.83,SSW,199,0.0,0.0,97,0.00,,-RA,0.00,VWS V14.01,2013-04-01 07:15:00,
2013-04-01 03:25:00,54.5,53.7,29.82,SSW,199,0.0,0.0,97,0.00,,-RA,0.00,VWS V14.01,2013-04-01 07:25:00,
2013-04-01 03:30:00,54.5,53.7,29.82,SSW,199,0.0,0.0,97,0.00,,-RA,0.00,VWS V14.01,2013-04-01 07:30:00,
2013-04-01 03:35:00,54.5,53.7,29.82,SSW,199,0.0,0.0,97,0.00,,-RA,0.00,VWS V14.01,2013-04-01 07:35:00,
2013-04-01 03:40:00,54.5,53.7,29.82,SSW,199,0.0,0.0,97,0.00,,-RA,0.00,VWS V14.01,2013-04-01 07:40:00,
2013-04-01 03:45:00,54.3,53.5,29.82,SSW,199,0.0,0.0,97,0.00,,-RA,0.00,VWS V14.01,2013-04-01 07:45:00,
2013-04-01 03:50:00,54.2,53.4,29.81,SSW,199,0.0,0.0,97,0.00,,-RA,0.00,VWS V14.01,2013-04-01 07:50:00,
2013-04-01 04:00:00,54.1,53.3,29.82,SSW,200,0.0,0.0,97,0.00,,-RA,0.00,VWS V14.01,2013-04-01 08:00:00,
2013-04-01 04:10:00,54.2,53.4,29.82,SSW,199,0.0,0.0,97,0.00,,-RA,0.00,VWS V14.01,2013-04-01 08:10:00,
2013-04-01 04:15:00,54.2,53.4,29.82,SSW,200,0.0,0.0,97,0.00,,-RA,0.00,VWS V14.01,2013-04-01 08:15:00,
2013-04-01 04:25:00,54.5,53.7,29.82,SSW,199,0.0,0.0,97,0.00,,-RA,0.00,VWS V14.01,2013-04-01 08:25:00,
2013-04-01 04:30:00,54.5,53.7,29.82,SSW,197,0.0,0.0,97,0.00,,-RA,0.00,VWS V14.01,2013-04-01 08:30:00,
2013-04-01 04:35:00,54.7,53.9,29.82,SSW,197,0.0,0.0,97,0.01,,-RA,0.01,VWS V14.01,2013-04-01 08:35:00,
2013-04-01 04:45:00,54.7,53.9,29.82,SSW,197,0.0,0.0,97,0.01,,-RA,0.01,VWS V14.01,2013-04-01 08:45:00,
2013-04-01 04:55:00,54.8,54.0,29.82,SSW,197,0.0,0.0,97,0.01,,-RA,0.01,VWS V14.01,2013-04-01 08:55:00,
2013-04-01 05:00:00,54.8,54.0,29.82,SSW,197,0.0,0.0,97,0.01,,OVC026,0.01,VWS V14.01,2013-04-01 09:00:00,
2013-04-01 05:05:00,54.8,54.0,29.82,SSW,197,0.0,0.0,97,0.01,,OVC026,0.01,VWS V14.01,2013-04-01 09:05:00,
2013-04-01 05:10:00,54.7,53.9,29.82,SSW,197,0.0,0.0,97,0.01,,OVC026,0.01,VWS V14.01,2013-04-01 09:10:00,
2013-04-01 05:15:00,54.8,54.0,29.83,SSW,198,0.0,0.0,97,0.01,,OVC026,0.01,VWS V14.01,2013-04-01 09:15:00,
2013-04-01 05:20:00,54.9,54.1,29.83,SSW,198,0.0,0.0,97,0.01,,OVC026,0.01,VWS V14.01,2013-04-01 09:20:00,
2013-04-01 05:25:00,54.9,54.1,29.83,SSW,198,0.0,0.0,97,0.01,,OVC026,0.01,VWS V14.01,2013-04-01 09:25:00,
2013-04-01 05:35:00,54.6,53.8,29.83,SSW,197,0.0,0.0,97,0.01,,OVC046,0.01,VWS V14.01,2013-04-01 09:35:00,
2013-04-01 05:40:00,54.6,53.8,29.83,SSW,197,0.0,0.0,97,0.00,,OVC046,0.01,VWS V14.01,2013-04-01 09:40:00,
2013-04-01 05:45:00,54.6,53.8,29.83,SSW,197,0.0,0.0,97,0.00,,OVC046,0.01,VWS V14.01,2013-04-01 09:45:00,
2013-04-01 05:55:00,54.5,53.7,29.83,SSW,197,0.0,0.0,97,0.00,,OVC046,0.01,VWS V14.01,2013-04-01 09:55:00,
2013-04-01 06:00:00,54.5,53.7,29.83,SSW,197,0.0,0.0,97,0.00,,-RA,0.01,VWS V14.01,2013-04-01 10:00:00,
2013-04-01 06:05:00,54.4,53.6,29.84,SSW,197,0.0,0.0,97,0.00,,-RA,0.01,VWS V14.01,2013-04-01 10:05:00,
2013-04-01 06:10:00,54.4,53.6,29.84,SSW,197,0.0,0.0,97,0.00,,-RA,0.01,VWS V14.01,2013-04-01 10:10:00,
2013-04-01 06:20:00,54.2,53.4,29.84,SSW,197,0.0,0.0,97,0.00,,-RA,0.01,VWS V14.01,2013-04-01 10:20:00,
2013-04-01 06:30:00,54.1,53.3,29.84,SSW,197,0.0,0.0,97,0.00,,-RA,0.01,VWS V14.01,2013-04-01 10:30:00,
2013-04-01 06:35:00,54.1,53.3,29.84,SSW,197,0.0,0.0,97,0.00,,-RA,0.01,VWS V14.01,2013-04-01 10:35:00,
2013-04-01 06:45:00,54.0,53.2,29.84,SSW,197,0.0,0.0,97,0.00,,-RA,0.01,VWS V14.01,2013-04-01 10:45:00,
2013-04-01 06:50:00,53.9,53.1,29.85,SSW,197,0.0,0.0,97,0.00,,-RA,0.01,VWS V14.01,2013-04-01 10:50:00,
2013-04-01 06:55:00,53.9,53.1,29.85,SSW,197,0.0,0.0,97,0.00,,BKN070,0.01,VWS V14.01,2013-04-01 10:55:00,
2013-04-01 07:00:00,53.9,53.1,29.85,SSW,197,0.0,0.0,97,0.00,,BKN070,0.01,VWS V14.01,2013-04-01 11:00:00,
2013-04-01 07:05:00,53.9,53.1,29.85,SSW,197,0.0,0.0,97,0.00,,BKN070,0.01,VWS V14.01,2013-04-01 11:05:00,
2013-04-01 07:15:00,54.1,53.3,29.86,SSW,197,0.0,0.0,97,0.00,,BKN070,0.01,VWS V14.01,2013-04-01 11:15:00,
2013-04-01 07:20:00,53.9,53.1,29.86,SSW,197,0.0,0.0,97,0.00,,BKN070,0.01,VWS V14.01,2013-04-01 11:20:00,
2013-04-01 07:25:00,53.8,53.0,29.86,SSW,197,0.0,0.0,97,0.00,,BKN070,0.01,VWS V14.01,2013-04-01 11:25:00,
2013-04-01 07:30:00,53.8,53.0,29.86,SSW,197,0.0,0.0,97,0.00,,BKN070,0.01,VWS V14.01,2013-04-01 11:30:00,
2013-04-01 07:35:00,53.8,53.0,29.87,SSW,197,0.0,0.0,97,0.00,,BKN070,0.01,VWS V14.01,2013-04-01 11:35:00,
2013-04-01 07:45:00,53.9,53.1,29.87,SSW,197,0.0,0.0,97,0.00,,BKN070,0.01,VWS V14.01,2013-04-01 11:45:00,
2013-04-01 07:50:00,53.9,53.1,29.87,SSW,197,0.0,0.0,97,0.00,,BKN070,0.01,VWS V14.01,2013-04-01 11:50:00,
2013-04-01 07:55:00,53.9,53.1,29.87,SSW,197,0.0,0.0,97,0.00,,BKN070,0.01,VWS V14.01,2013-04-01 11:55:00,
2013-04-01 08:05:00,54.1,53.5,29.87,SSW,197,0.0,0.0,98,0.00,,,0.01,VWS V14.01,2013-04-01 12:05:00,
2013-04-01 08:10:00,54.2,53.7,29.87,SSW,197,0.0,0.0,98,0.00,,,0.01,VWS V14.01,2013-04-01 12:10:00,
2013-04-01 08:20:00,54.4,53.8,29.87,SSW,197,0.0,0.0,98,0.00,,,0.01,VWS V14.01,2013-04-01 12:20:00,
2013-04-01 08:30:00,55.0,54.5,29.87,SSW,198,0.0,0.0,98,0.00,,,0.01,VWS V14.01,2013-04-01 12:30:00,
2013-04-01 08:35:00,55.1,54.5,29.88,SSW,198,0.0,0.0,98,0.00,,,0.01,VWS V14.01,2013-04-01 12:35:00,
2013-04-01 08:40:00,55.3,54.8,29.87,SSW,198,0.0,0.0,98,0.00,,,0.01,VWS V14.01,2013-04-01 12:40:00,
2013-04-01 08:45:00,55.3,54.8,29.87,SSW,198,0.0,0.0,98,0.00,,,0.01,VWS V14.01,2013-04-01 12:45:00,
2013-04-01 08:50:00,55.5,55.0,29.87,SSW,198,0.0,0.0,98,0.00,,,0.01,VWS V14.01,2013-04-01 12:50:00,
2013-04-01 09:00:00,55.5,55.0,29.87,SSW,198,0.0,0.0,98,0.00,,BKN200,0.01,VWS V14.01,2013-04-01 13:00:00,
2013-04-01 09:05:00,55.7,55.2,29.87,SSW,198,0.0,0.0,98,0.00,,BKN200,0.01,VWS V14.01,2013-04-01 13:05:00,
2013-04-01 09:10:00,55.7,55.2,29.87,SW,222,0.0,1.0,98,0.00,,BKN200,0.01,VWS V14.01,2013-04-01 13:10:00,
2013-04-01 09:15:00,55.8,55.0,29.87,SW,222,0.0,0.0,97,0.00,,BKN200,0.01,VWS V14.01,2013-04-01 13:15:00,
2013-04-01 09:20:00,56.0,55.2,29.87,SW,222,0.0,0.0,97,0.00,,BKN200,0.01,VWS V14.01,2013-04-01 13:20:00,
2013-04-01 09:25:00,56.1,54.4,29.87,SW,222,0.0,1.0,94,0.00,,BKN200,0.01,VWS V14.01,2013-04-01 13:25:00,
2013-04-01 09:30:00,56.4,53.8,29.87,WSW,258,0.0,1.0,91,0.00,,BKN200,0.01,VWS V14.01,2013-04-01 13:30:00,
2013-04-01 09:35:00,56.7,53.5,29.87,West,259,0.0,2.0,89,0.00,,BKN200,0.01,VWS V14.01,2013-04-01 13:35:00,
2013-04-01 09:40:00,56.9,53.4,29.87,West,259,0.0,1.0,88,0.00,,BKN200,0.01,VWS V14.01,2013-04-01 13:40:00,
2013-04-01 09:45:00,56.9,52.8,29.87,WSW,255,0.0,2.0,86,0.00,,BKN200,0.01,VWS V14.01,2013-04-01 13:45:00,
2013-04-01 09:50:00,57.0,51.9,29.87,West,269,0.0,3.0,83,0.00,,BKN200,0.01,VWS V14.01,2013-04-01 13:50:00,
2013-04-01 09:55:00,57.2,51.4,29.87,West,269,0.0,1.0,81,0.00,,BKN200,0.01,VWS V14.01,2013-04-01 13:55:00,
2013-04-01 10:00:00,58.0,51.9,29.87,WSW,253,0.0,0.0,80,0.00,,BKN200,0.01,VWS V14.01,2013-04-01 14:00:00,
2013-04-01 10:05:00,58.5,51.3,29.87,WSW,256,0.0,1.0,77,0.00,,BKN200,0.01,VWS V14.01,2013-04-01 14:05:00,
2013-04-01 10:10:00,59.0,50.7,29.87,West,266,0.0,2.0,74,0.00,,BKN200,0.01,VWS V14.01,2013-04-01 14:10:00,
2013-04-01 10:15:00,59.3,51.4,29.87,West,278,1.0,2.0,75,0.00,,BKN200,0.01,VWS V14.01,2013-04-01 14:15:00,
2013-04-01 10:20:00,59.8,50.4,29.87,WNW,288,2.0,5.0,71,0.00,,BKN200,0.01,VWS V14.01,2013-04-01 14:20:00,
2013-04-01 10:25:00,59.9,49.7,29.87,West,259,1.0,3.0,69,0.00,,BKN200,0.01,VWS V14.01,2013-04-01 14:25:00,
2013-04-01 10:30:00,60.6,50.4,29.87,South,172,1.0,4.0,69,0.00,,BKN200,0.01,VWS V14.01,2013-04-01 14:30:00,
2013-04-01 10:35:00,61.0,49.2,29.87,SW,224,8.0,8.0,65,0.00,,BKN200,0.01,VWS V14.01,2013-04-01 14:35:00,
2013-04-01 10:40:00,61.3,48.6,29.87,WSW,257,0.0,8.0,63,0.00,,BKN200,0.01,VWS V14.01,2013-04-01 14:40:00,
2013-04-01 10:45:00,61.3,48.2,29.87,NW,308,0.0,3.0,62,0.00,,BKN200,0.01,VWS V14.01,2013-04-01 14:45:00,
2013-04-01 10:50:00,61.6,48.9,29.87,West,271,0.0,2.0,63,0.00,,BKN200,0.01,VWS V14.01,2013-04-01 14:50:00,
2013-04-01 10:55:00,61.9,46.0,29.87,WSW,245,0.0,5.0,56,0.00,,BKN200,0.01,VWS V14.01,2013-04-01 14:55:00,
2013-04-01 11:00:00,62.7,46.8,29.87,WSW,257,5.0,5.0,56,0.00,,SCT200,0.01,VWS V14.01,2013-04-01 15:00:00,
2013-04-01 11:05:00,63.0,48.0,29.87,West,271,0.0,5.0,58,0.00,,SCT200,0.01,VWS V14.01,2013-04-01 15:05:00,
2013-04-01 11:10:00,63.4,47.9,29.87,West,278,1.0,3.0,57,0.00,,SCT200,0.01,VWS V14.01,2013-04-01 15:10:00,
2013-04-01 11:15:00,63.7,45.2,29.87,WSW,244,2.0,6.0,51,0.00,,SCT200,0.01,VWS V14.01,2013-04-01 15:15:00,
2013-04-01 11:20:00,64.1,45.1,29.87,WSW,240,4.0,4.0,50,0.00,,SCT200,0.01,VWS V14.01,2013-04-01 15:20:00,
2013-04-01 11:25:00,64.4,44.8,29.87,SSW,203,1.0,5.0,49,0.00,,SCT200,0.01,VWS V14.01,2013-04-01 15:25:00,
2013-04-01 11:30:00,64.8,44.1,29.87,WNW,283,2.0,5.0,47,0.00,,SCT200,0.01,VWS V14.01,2013-04-01 15:30:00,
2013-04-01 11:35:00,65.0,42.6,29.87,WNW,287,3.0,3.0,44,0.00,,SCT200,0.01,VWS V14.01,2013-04-01 15:35:00,
2013-04-01 11:40:00,65.4,44.1,29.87,West,277,0.0,4.0,46,0.00,,SCT200,0.01,VWS V14.01,2013-04-01 15:40:00,
2013-04-01 11:45:00,65.6,41.3,29.86,West,270,1.0,5.0,41,0.00,,SCT200,0.01,VWS V14.01,2013-04-01 15:45:00,
2013-04-01 11:50:00,66.0,42.3,29.86,SW,227,0.0,3.0,42,0.00,,SCT200,0.01,VWS V14.01,2013-04-01 15:50:00,
2013-04-01 11:55:00,66.4,41.4,29.86,WNW,287,2.0,3.0,40,0.00,,SCT200,0.01,VWS V14.01,2013-04-01 15:55:00,
2013-04-01 12:00:00,66.4,42.0,29.86,WNW,300,0.0,4.0,41,0.00,,SCT200,0.01,VWS V14.01,2013-04-01 16:00:00,
2013-04-01 12:05:00,66.3,41.3,29.86,SW,230,3.0,5.0,40,0.00,,SCT200,0.01,VWS V14.01,2013-04-01 16:05:00,
2013-04-01 12:10:00,66.3,40.0,29.86,NW,314,1.0,3.0,38,0.00,,SCT200,0.01,VWS V14.01,2013-04-01 16:10:00,
2013-04-01 12:20:00,67.0,39.9,29.86,NNW,338,1.0,2.0,37,0.00,,SCT200,0.01,VWS V14.01,2013-04-01 16:20:00,
2013-04-01 12:25:00,67.4,40.9,29.85,NW,307,1.0,3.0,38,0.00,,SCT200,0.01,VWS V14.01,2013-04-01 16:25:00,
2013-04-01 12:30:00,67.9,42.1,29.85,West,278,1.0,3.0,39,0.00,,SCT200,0.01,VWS V14.01,2013-04-01 16:30:00,
2013-04-01 12:35:00,68.4,41.8,29.85,WSW,241,0.0,2.0,38,0.00,,SCT200,0.01,VWS V14.01,2013-04-01 16:35:00,
2013-04-01 12:40:00,68.7,42.8,29.85,West,275,3.0,4.0,39,0.00,,SCT200,0.01,VWS V14.01,2013-04-01 16:40:00,
2013-04-01 12:45:00,69.1,41.8,29.85,SW,218,4.0,6.0,37,0.00,,SCT200,0.01,VWS V14.01,2013-04-01 16:45:00,
2013-04-01 12:50:00,68.9,42.3,29.85,WSW,248,4.0,9.0,38,0.00,,SCT200,0.01,VWS V14.01,2013-04-01 16:50:00,
2013-04-01 12:55:00,68.8,43.5,29.84,WSW,239,0.0,4.0,40,0.00,,SCT200,0.01,VWS V14.01,2013-04-01 16:55:00,
2013-04-01 13:00:00,69.6,41.5,29.84,NW,306,2.0,4.0,36,0.00,,SCT200,0.01,VWS V14.01,2013-04-01 17:00:00,
2013-04-01 13:05:00,70.0,43.2,29.84,NW,309,0.0,2.0,38,0.00,,SCT200,0.01,VWS V14.01,2013-04-01 17:05:00,
2013-04-01 13:10:00,70.1,41.9,29.84,NW,311,0.0,2.0,36,0.00,,SCT200,0.01,VWS V14.01,2013-04-01 17:10:00,
2013-04-01 13:15:00,70.2,42.7,29.84,SW,235,0.0,5.0,37,0.00,,SCT200,0.01,VWS V14.01,2013-04-01 17:15:00,
2013-04-01 13:20:00,70.2,41.3,29.84,WSW,252,6.0,10.0,35,0.00,,SCT200,0.01,VWS V14.01,2013-04-01 17:20:00,
2013-04-01 13:25:00,70.6,41.7,29.84,West,259,3.0,6.0,35,0.00,,SCT200,0.01,VWS V14.01,2013-04-01 17:25:00,
2013-04-01 13:30:00,71.1,42.1,29.83,ENE,63,1.0,3.0,35,0.00,,SCT200,0.01,VWS V14.01,2013-04-01 17:30:00,
2013-04-01 13:35:00,71.2,41.4,29.83,NW,314,1.0,2.0,34,0.00,,SCT200,0.01,VWS V14.01,2013-04-01 17:35:00,
2013-04-01 13:40:00,71.1,43.5,29.83,SSW,212,1.0,6.0,37,0.00,,SCT200,0.01,VWS V14.01,2013-04-01 17:40:00,
2013-04-01 13:45:00,71.5,41.7,29.83,WNW,293,2.0,7.0,34,0.00,,SCT200,0.01,VWS V14.01,2013-04-01 17:45:00,
2013-04-01 13:50:00,71.4,43.1,29.82,SW,226,3.0,5.0,36,0.00,,SCT200,0.01,VWS V14.01,2013-04-01 17:50:00,
2013-04-01 13:55:00,71.9,42.8,29.82,WNW,297,2.0,4.0,35,0.00,,SCT200,0.01,VWS V14.01,2013-04-01 17:55:00,
2013-04-01 14:00:00,72.1,42.2,29.82,WNW,298,2.0,5.0,34,0.00,,SCT200,0.01,VWS V14.01,2013-04-01 18:00:00,
2013-04-01 14:05:00,72.3,42.4,29.82,West,274,1.0,3.0,34,0.00,,SCT200,0.01,VWS V14.01,2013-04-01 18:05:00,
2013-04-01 14:10:00,72.2,43.1,29.82,NW,307,1.0,4.0,35,0.00,,SCT200,0.01,VWS V14.01,2013-04-01 18:10:00,
2013-04-01 14:15:00,72.2,43.1,29.82,NW,326,1.0,4.0,35,0.00,,SCT200,0.01,VWS V14.01,2013-04-01 18:15:00,
2013-04-01 14:20:00,72.4,43.2,29.82,WNW,290,2.0,6.0,35,0.00,,SCT200,0.01,VWS V14.01,2013-04-01 18:20:00,
2013-04-01 14:25:00,72.2,43.1,29.81,West,262,2.0,8.0,35,0.00,,SCT200,0.01,VWS V14.01,2013-04-01 18:25:00,
2013-04-01 14:30:00,72.2,41.5,29.81,West,269,4.0,7.0,33,0.00,,SCT200,0.01,VWS V14.01,2013-04-01 18:30:00,
2013-04-01 14:35:00,72.3,42.4,29.81,West,269,1.0,7.0,34,0.00,,SCT200,0.01,VWS V14.01,2013-04-01 18:35:00,
2013-04-01 14:40:00,72.8,43.6,29.81,WSW,255,5.0,5.0,35,0.00,,SCT200,0.01,VWS V14.01,2013-04-01 18:40:00,
2013-04-01 14:45:00,73.0,43.0,29.81,SW,221,4.0,6.0,34,0.00,,SCT200,0.01,VWS V14.01,2013-04-01 18:45:00,
2013-04-01 14:50:00,73.6,41.1,29.80,NW,307,1.0,6.0,31,0.00,,SCT200,0.01,VWS V14.01,2013-04-01 18:50:00,
2013-04-01 14:55:00,73.2,42.4,29.80,NW,311,1.0,8.0,33,0.00,,SCT200,0.01,VWS V14.01,2013-04-01 18:55:00,
2013-04-01 15:00:00,73.4,43.3,29.80,WSW,257,4.0,8.0,34,0.00,,SCT200,0.01,VWS V14.01,2013-04-01 19:00:00,
2013-04-01 15:05:00,73.6,44.3,29.80,West,272,0.0,7.0,35,0.00,,SCT200,0.01,VWS V14.01,2013-04-01 19:05:00,
2013-04-01 15:10:00,73.3,43.3,29.80,SW,234,3.0,7.0,34,0.00,,SCT200,0.01,VWS V14.01,2013-04-01 19:10:00,
2013-04-01 15:15:00,73.8,41.3,29.80,WNW,288,5.0,7.0,31,0.00,,SCT200,0.01,VWS V14.01,2013-04-01 19:15:00,
2013-04-01 15:20:00,73.9,43.8,29.80,SW,226,2.0,7.0,34,0.00,,SCT200,0.01,VWS V14.01,2013-04-01 19:20:00,
2013-04-01 15:25:00,73.4,39.2,29.79,WSW,237,10.0,12.0,29,0.00,,SCT200,0.01,VWS V14.01,2013-04-01 19:25:00,
2013-04-01 15:30:00,73.6,43.5,29.80,West,273,3.0,12.0,34,0.00,,SCT200,0.01,VWS V14.01,2013-04-01 19:30:00,
2013-04-01 15:35:00,74.5,41.9,29.80,West,280,1.0,5.0,31,0.00,,SCT200,0.01,VWS V14.01,2013-04-01 19:35:00,
2013-04-01 15:40:00,74.6,42.0,29.79,SW,236,4.0,9.0,31,0.00,,SCT200,0.01,VWS V14.01,2013-04-01 19:40:00,
2013-04-01 15:45:00,74.3,39.1,29.79,NW,304,3.0,13.0,28,0.00,,SCT200,0.01,VWS V14.01,2013-04-01 19:45:00,
2013-04-01 15:50:00,73.8,37.8,29.79,West,260,8.0,17.0,27,0.00,,SCT200,0.01,VWS V14.01,2013-04-01 19:50:00,
2013-04-01 15:55:00,72.5,39.3,29.79,West,272,4.0,8.0,30,0.00,,SCT200,0.01,VWS V14.01,2013-04-01 19:55:00,
2013-04-01 16:00:00,72.9,38.8,29.79,WSW,252,3.0,10.0,29,0.00,,SCT200,0.01,VWS V14.01,2013-04-01 20:00:00,
2013-04-01 16:05:00,72.4,38.4,29.80,WNW,302,1.0,11.0,29,0.00,,SCT200,0.01,VWS V14.01,2013-04-01 20:05:00,
2013-04-01 16:10:00,72.2,39.1,29.79,West,278,4.0,4.0,30,0.00,,SCT200,0.01,VWS V14.01,2013-04-01 20:10:00,
2013-04-01 16:15:00,72.5,38.5,29.79,West,269,5.0,11.0,29,0.00,,SCT200,0.01,VWS V14.01,2013-04-01 20:15:00,
2013-04-01 16:20:00,73.1,38.1,29.79,WSW,256,1.0,6.0,28,0.00,,SCT200,0.01,VWS V14.01,2013-04-01 20:20:00,
2013-04-01 16:25:00,72.8,39.6,29.79,WNW,283,2.0,10.0,30,0.00,,SCT200,0.01,VWS V14.01,2013-04-01 20:25:00,
2013-04-01 16:35:00,72.3,38.3,29.79,West,268,5.0,11.0,29,0.00,,SCT200,0.01,VWS V14.01,2013-04-01 20:35:00,
2013-04-01 16:40:00,72.0,39.7,29.79,NW,314,0.0,12.0,31,0.00,,SCT200,0.01,VWS V14.01,2013-04-01 20:40:00,
2013-04-01 16:45:00,72.2,39.9,29.79,NW,304,1.0,8.0,31,0.00,,SCT200,0.01,VWS V14.01,2013-04-01 20:45:00,
2013-04-01 16:50:00,71.9,38.8,29.79,WNW,292,0.0,3.0,30,0.00,,SCT200,0.01,VWS V14.01,2013-04-01 20:50:00,
2013-04-01 16:55:00,71.3,39.1,29.79,West,262,4.0,6.0,31,0.00,,SCT200,0.01,VWS V14.01,2013-04-01 20:55:00,
2013-04-01 17:00:00,71.8,39.6,29.79,West,274,0.0,6.0,31,0.00,,BKN100,0.01,VWS V14.01,2013-04-01 21:00:00,
2013-04-01 17:05:00,71.5,38.5,29.79,SW,234,3.0,6.0,30,0.00,,BKN100,0.01,VWS V14.01,2013-04-01 21:05:00,
2013-04-01 17:10:00,71.4,39.2,29.80,WNW,297,1.0,7.0,31,0.00,,BKN100,0.01,VWS V14.01,2013-04-01 21:10:00,
2013-04-01 17:15:00,71.1,41.3,29.80,West,269,1.0,2.0,34,0.00,,BKN100,0.01,VWS V14.01,2013-04-01 21:15:00,
2013-04-01 17:20:00,70.7,40.2,29.80,West,262,0.0,2.0,33,0.00,,BKN100,0.01,VWS V14.01,2013-04-01 21:20:00,
2013-04-01 17:25:00,70.4,40.0,29.80,WNW,282,1.0,5.0,33,0.00,,BKN100,0.01,VWS V14.01,2013-04-01 21:25:00,
2013-04-01 17:30:00,70.3,40.6,29.80,West,265,0.0,3.0,34,0.00,,BKN100,0.01,VWS V14.01,2013-04-01 21:30:00,
2013-04-01 17:35:00,70.5,40.8,29.80,West,261,1.0,3.0,34,0.00,,BKN100,0.01,VWS V14.01,2013-04-01 21:35:00,
2013-04-01 17:40:00,70.4,40.0,29.80,West,281,1.0,2.0,33,0.00,,BKN100,0.01,VWS V14.01,2013-04-01 21:40:00,
2013-04-01 17:45:00,70.1,39.7,29.80,WNW,283,1.0,3.0,33,0.00,,BKN100,0.01,VWS V14.01,2013-04-01 21:45:00,
2013-04-01 17:50:00,69.9,39.5,29.80,West,273,0.0,1.0,33,0.00,,BKN100,0.01,VWS V14.01,2013-04-01 21:50:00,
2013-04-01 17:55:00,69.9,40.3,29.80,West,264,2.0,6.0,34,0.00,,BKN100,0.01,VWS V14.01,2013-04-01 21:55:00,
2013-04-01 18:00:00,70.1,38.9,29.80,WNW,283,1.0,3.0,32,0.00,,BKN100,0.01,VWS V14.01,2013-04-01 22:00:00,
2013-04-01 18:05:00,70.8,38.7,29.80,West,266,5.0,8.0,31,0.00,,BKN100,0.01,VWS V14.01,2013-04-01 22:05:00,
2013-04-01 18:10:00,71.4,39.2,29.80,SW,219,3.0,5.0,31,0.00,,BKN100,0.01,VWS V14.01,2013-04-01 22:10:00,
2013-04-01 18:15:00,71.4,39.2,29.81,West,271,0.0,10.0,31,0.00,,BKN100,0.01,VWS V14.01,2013-04-01 22:15:00,
2013-04-01 18:20:00,71.8,38.7,29.81,West,272,2.0,4.0,30,0.00,,BKN100,0.01,VWS V14.01,2013-04-01 22:20:00,
2013-04-01 18:25:00,71.9,38.8,29.81,WNW,301,1.0,5.0,30,0.00,,BKN100,0.01,VWS V14.01,2013-04-01 22:25:00,
2013-04-01 18:30:00,71.5,37.6,29.82,West,272,7.0,14.0,29,0.00,,BKN100,0.01,VWS V14.01,2013-04-01 22:30:00,
2013-04-01 18:35:00,71.2,36.5,29.82,NW,318,2.0,12.0,28,0.00,,BKN100,0.01,VWS V14.01,2013-04-01 22:35:00,
2013-04-01 18:40:00,70.7,36.9,29.82,West,269,3.0,7.0,29,0.00,,BKN100,0.01,VWS V14.01,2013-04-01 22:40:00,
2013-04-01 18:45:00,70.5,36.7,29.82,West,272,3.0,11.0,29,0.00,,BKN100,0.01,VWS V14.01,2013-04-01 22:45:00,
2013-04-01 18:50:00,70.1,37.3,29.82,WNW,293,0.0,5.0,30,0.00,,BKN100,0.01,VWS V14.01,2013-04-01 22:50:00,
2013-04-01 18:55:00,69.6,37.7,29.83,NW,304,1.0,4.0,31,0.00,,BKN100,0.01,VWS V14.01,2013-04-01 22:55:00,
2013-04-01 19:00:00,69.1,38.0,29.83,West,269,1.0,3.0,32,0.00,,SCT095,0.01,VWS V14.01,2013-04-01 23:00:00,
2013-04-01 19:05:00,68.6,38.4,29.83,WNW,294,1.0,4.0,33,0.00,,SCT095,0.01,VWS V14.01,2013-04-01 23:05:00,
2013-04-01 19:10:00,68.3,38.9,29.83,WSW,257,0.0,3.0,34,0.00,,SCT095,0.01,VWS V14.01,2013-04-01 23:10:00,
2013-04-01 19:15:00,67.8,38.4,29.83,WNW,302,1.0,2.0,34,0.00,,SCT095,0.01,VWS V14.01,2013-04-01 23:15:00,
2013-04-01 19:20:00,67.3,38.7,29.83,WNW,291,1.0,3.0,35,0.00,,SCT095,0.01,VWS V14.01,2013-04-01 23:20:00,
2013-04-01 19:25:00,67.2,38.7,29.84,West,264,1.0,3.0,35,0.00,,SCT095,0.01,VWS V14.01,2013-04-01 23:25:00,
2013-04-01 19:30:00,66.7,38.9,29.84,West,276,0.0,1.0,36,0.00,,SCT095,0.01,VWS V14.01,2013-04-01 23:30:00,
2013-04-01 19:35:00,66.4,39.4,29.84,West,268,0.0,2.0,37,0.00,,SCT095,0.01,VWS V14.01,2013-04-01 23:35:00,
2013-04-01 19:40:00,66.0,39.0,29.84,WNW,291,0.0,1.0,37,0.00,,SCT095,0.01,VWS V14.01,2013-04-01 23:40:00,
2013-04-01 19:45:00,65.8,38.8,29.84,WNW,292,0.0,0.0,37,0.00,,SCT095,0.01,VWS V14.01,2013-04-01 23:45:00,
2013-04-01 19:50:00,65.4,39.2,29.84,WNW,291,0.0,1.0,38,0.00,,SCT095,0.01,VWS V14.01,2013-04-01 23:50:00,
2013-04-01 19:55:00,65.2,39.0,29.84,West,281,0.0,1.0,38,0.00,,SCT095,0.01,VWS V14.01,2013-04-01 23:55:00,
2013-04-01 20:00:00,64.9,38.7,29.84,West,281,0.0,1.0,38,0.00,,FEW100,0.01,VWS V14.01,2013-04-02 00:00:00,
2013-04-01 20:05:00,64.5,39.0,29.84,West,281,0.0,1.0,39,0.00,,FEW100,0.01,VWS V14.01,2013-04-02 00:05:00,
2013-04-01 20:10:00,64.3,38.8,29.85,West,281,0.0,1.0,39,0.00,,FEW100,0.01,VWS V14.01,2013-04-02 00:10:00,
2013-04-01 20:15:00,64.0,39.8,29.85,West,281,0.0,1.0,41,0.00,,FEW100,0.01,VWS V14.01,2013-04-02 00:15:00,
2013-04-01 20:20:00,63.4,41.1,29.85,West,281,0.0,0.0,44,0.00,,FEW100,0.01,VWS V14.01,2013-04-02 00:20:00,
2013-04-01 20:25:00,62.7,40.5,29.85,West,281,0.0,0.0,44,0.00,,FEW100,0.01,VWS V14.01,2013-04-02 00:25:00,
2013-04-01 20:30:00,62.0,40.4,29.85,West,281,0.0,0.0,45,0.00,,FEW100,0.01,VWS V14.01,2013-04-02 00:30:00,
2013-04-01 20:35:00,61.4,41.6,29.86,West,281,0.0,0.0,48,0.00,,FEW100,0.01,VWS V14.01,2013-04-02 00:35:00,
2013-04-01 20:40:00,60.8,41.5,29.86,West,281,0.0,0.0,49,0.00,,FEW100,0.01,VWS V14.01,2013-04-02 00:40:00,
2013-04-01 20:45:00,60.2,45.4,29.86,West,281,0.0,0.0,58,0.00,,FEW100,0.01,VWS V14.01,2013-04-02 00:45:00,
2013-04-01 20:55:00,58.8,44.1,29.86,West,281,0.0,0.0,58,0.00,,FEW100,0.01,VWS V14.01,2013-04-02 00:55:00,
2013-04-01 21:00:00,58.3,41.3,29.87,West,271,0.0,1.0,53,0.00,,SCT100,0.01,VWS V14.01,2013-04-02 01:00:00,
2013-04-01 21:05:00,59.2,41.1,29.87,West,271,0.0,1.0,51,0.00,,SCT100,0.01,VWS V14.01,2013-04-02 01:05:00,
2013-04-01 21:10:00,59.6,42.5,29.87,West,269,0.0,0.0,53,0.00,,SCT100,0.01,VWS V14.01,2013-04-02 01:10:00,
2013-04-01 21:15:00,59.5,42.9,29.87,West,269,0.0,0.0,54,0.00,,SCT100,0.01,VWS V14.01,2013-04-02 01:15:00,
2013-04-01 21:20:00,58.9,41.3,29.87,West,269,0.0,1.0,52,0.00,,SCT100,0.01,VWS V14.01,2013-04-02 01:20:00,
2013-04-01 21:25:00,59.0,41.9,29.88,West,269,0.0,0.0,53,0.00,,SCT100,0.01,VWS V14.01,2013-04-02 01:25:00,
2013-04-01 21:30:00,58.6,46.1,29.88,West,269,0.0,0.0,63,0.00,,SCT100,0.01,VWS V14.01,2013-04-02 01:30:00,
2013-04-01 21:35:00,58.1,44.3,29.88,West,269,0.0,0.0,60,0.00,,SCT100,0.01,VWS V14.01,2013-04-02 01:35:00,
2013-04-01 21:40:00,57.8,44.0,29.88,West,269,0.0,1.0,60,0.00,,SCT100,0.01,VWS V14.01,2013-04-02 01:40:00,
2013-04-01 21:45:00,57.8,43.1,29.89,West,269,0.0,0.0,58,0.00,,SCT100,0.01,VWS V14.01,2013-04-02 01:45:00,
2013-04-01 21:50:00,57.9,47.8,29.89,West,269,0.0,1.0,69,0.00,,SCT100,0.01,VWS V14.01,2013-04-02 01:50:00,
2013-04-01 21:55:00,57.4,48.1,29.89,West,269,0.0,0.0,71,0.00,,SCT100,0.01,VWS V14.01,2013-04-02 01:55:00,
2013-04-01 22:00:00,56.8,47.1,29.89,West,269,0.0,0.0,70,0.00,,SCT100,0.01,VWS V14.01,2013-04-02 02:00:00,
2013-04-01 22:05:00,56.4,48.2,29.90,West,269,0.0,0.0,74,0.00,,SCT100,0.01,VWS V14.01,2013-04-02 02:05:00,
2013-04-01 22:10:00,56.0,47.5,29.90,West,269,0.0,0.0,73,0.00,,SCT100,0.01,VWS V14.01,2013-04-02 02:10:00,
2013-04-01 22:15:00,55.8,47.7,29.90,West,269,0.0,0.0,74,0.00,,SCT100,0.01,VWS V14.01,2013-04-02 02:15:00,
2013-04-01 22:20:00,55.8,43.0,29.90,West,269,0.0,1.0,62,0.00,,SCT100,0.01,VWS V14.01,2013-04-02 02:20:00,
2013-04-01 22:25:00,56.7,45.5,29.90,West,269,0.0,1.0,66,0.00,,SCT100,0.01,VWS V14.01,2013-04-02 02:25:00,
2013-04-01 22:30:00,56.8,41.8,29.91,West,269,0.0,1.0,57,0.00,,SCT100,0.01,VWS V14.01,2013-04-02 02:30:00,
2013-04-01 22:35:00,56.9,46.5,29.91,West,269,0.0,0.0,68,0.00,,SCT100,0.01,VWS V14.01,2013-04-02 02:35:00,
2013-04-01 22:40:00,56.6,46.2,29.91,West,269,0.0,0.0,68,0.00,,SCT100,0.01,VWS V14.01,2013-04-02 02:40:00,
2013-04-01 22:45:00,56.1,44.1,29.91,West,269,0.0,0.0,64,0.00,,SCT100,0.01,VWS V14.01,2013-04-02 02:45:00,
2013-04-01 22:50:00,56.0,47.1,29.92,West,269,0.0,0.0,72,0.00,,SCT100,0.01,VWS V14.01,2013-04-02 02:50:00,
2013-04-01 22:55:00,55.6,43.6,29.92,West,269,0.0,0.0,64,0.00,,SCT100,0.01,VWS V14.01,2013-04-02 02:55:00,
2013-04-01 23:00:00,55.5,43.5,29.92,NE,56,0.0,0.0,64,0.00,,SCT095,0.01,VWS V14.01,2013-04-02 03:00:00,
2013-04-01 23:05:00,55.4,42.6,29.92,NE,53,0.0,1.0,62,0.00,,SCT095,0.01,VWS V14.01,2013-04-02 03:05:00,
2013-04-01 23:10:00,56.0,39.6,29.92,WNW,297,3.0,4.0,54,0.00,,SCT095,0.01,VWS V14.01,2013-04-02 03:10:00,
2013-04-01 23:15:00,56.9,39.5,29.92,North,359,0.0,3.0,52,0.00,,SCT095,0.01,VWS V14.01,2013-04-02 03:15:00,
2013-04-01 23:20:00,56.9,38.0,29.92,NW,304,0.0,3.0,49,0.00,,SCT095,0.01,VWS V14.01,2013-04-02 03:20:00,
2013-04-01 23:25:00,56.9,38.5,29.93,WNW,303,0.0,1.0,50,0.00,,SCT095,0.01,VWS V14.01,2013-04-02 03:25:00,
2013-04-01 23:30:00,56.7,37.2,29.94,ENE,58,0.0,3.0,48,0.00,,SCT095,0.01,VWS V14.01,2013-04-02 03:30:00,
2013-04-01 23:40:00,56.0,36.1,29.95,NNE,13,0.0,4.0,47,0.00,,SCT095,0.01,VWS V14.01,2013-04-02 03:40:00,
2013-04-01 23:45:00,55.4,36.1,29.95,NNW,340,2.0,3.0,48,0.00,,SCT095,0.01,VWS V14.01,2013-04-02 03:45:00,
2013-04-01 23:50:00,54.8,35.0,29.96,North,4,2.0,3.0,47,0.00,,SCT095,0.01,VWS V14.01,2013-04-02 03:50:00,
2013-04-01 23:55:00,54.2,35.0,29.96,NNE,12,0.0,4.0,48,0.00,,SCT095,0.01,VWS V14.01,2013-04-02 03:55:00,